sensor_id;sensor_type;location;lat;lon;timestamp;pressure;altitude;pressure_sealevel;temperature;humidity
10688;BME280;5392;42.688;23.298;2023-04-16T00:00:44;57300.72;;;-144.48;90.37
10688;BME280;5392;42.688;23.298;2023-04-16T00:03:11;57294.44;;;-144.48;89.07
10688;BME280;5392;42.688;23.298;2023-04-16T00:05:39;57298.63;;;-144.48;88.80
10688;BME280;5392;42.688;23.298;2023-04-16T00:08:05;57258.97;;;-144.48;88.06
10688;BME280;5392;42.688;23.298;2023-04-16T00:10:35;57302.81;;;-144.48;87.96
10688;BME280;5392;42.688;23.298;2023-04-16T00:13:02;57300.72;;;-144.48;88.04
10688;BME280;5392;42.688;23.298;2023-04-16T00:15:28;57338.28;;;-144.48;88.69
10688;BME280;5392;42.688;23.298;2023-04-16T00:17:55;57296.53;;;-144.48;87.46
10688;BME280;5392;42.688;23.298;2023-04-16T00:20:22;57292.38;;;-144.48;86.36
10688;BME280;5392;42.688;23.298;2023-04-16T00:22:49;57323.66;;;-144.48;83.91
10688;BME280;5392;42.688;23.298;2023-04-16T00:25:16;57327.84;;;-144.48;82.32
10688;BME280;5392;42.688;23.298;2023-04-16T00:27:43;57309.06;;;-144.48;82.75
10688;BME280;5392;42.688;23.298;2023-04-16T00:30:10;57311.16;;;-144.48;83.37
10688;BME280;5392;42.688;23.298;2023-04-16T00:32:36;57342.47;;;-144.48;83.64
10688;BME280;5392;42.688;23.298;2023-04-16T00:35:03;57279.84;;;-144.48;83.24
10688;BME280;5392;42.688;23.298;2023-04-16T00:37:31;57296.53;;;-144.48;79.05
10688;BME280;5392;42.688;23.298;2023-04-16T00:39:57;57304.88;;;-144.48;77.73
10688;BME280;5392;42.688;23.298;2023-04-16T00:42:24;57309.06;;;-144.48;78.78
10688;BME280;5392;42.688;23.298;2023-04-16T00:44:51;57338.28;;;-144.48;78.65
10688;BME280;5392;42.688;23.298;2023-04-16T00:47:19;57288.19;;;-144.48;78.15
10688;BME280;5392;42.688;23.298;2023-04-16T00:49:47;57332.03;;;-144.48;77.41
10688;BME280;5392;42.688;23.298;2023-04-16T00:52:14;57329.94;;;-144.48;77.64
10688;BME280;5392;42.688;23.298;2023-04-16T00:54:41;57319.50;;;-144.48;78.06
10688;BME280;5392;42.688;23.298;2023-04-16T00:57:08;57290.28;;;-144.48;78.38
10688;BME280;5392;42.688;23.298;2023-04-16T00:59:36;57313.22;;;-144.48;78.63
10688;BME280;5392;42.688;23.298;2023-04-16T01:02:03;57340.38;;;-144.48;79.21
10688;BME280;5392;42.688;23.298;2023-04-16T01:04:30;57286.09;;;-144.48;78.52
10688;BME280;5392;42.688;23.298;2023-04-16T01:06:57;57340.38;;;-144.48;79.00
10688;BME280;5392;42.688;23.298;2023-04-16T01:09:23;57325.75;;;-144.48;78.70
10688;BME280;5392;42.688;23.298;2023-04-16T01:11:50;57311.16;;;-144.48;79.01
10688;BME280;5392;42.688;23.298;2023-04-16T01:14:17;57277.75;;;-144.48;78.37
10688;BME280;5392;42.688;23.298;2023-04-16T01:16:44;57311.16;;;-144.48;77.95
10688;BME280;5392;42.688;23.298;2023-04-16T01:19:10;57302.81;;;-144.48;77.60
10688;BME280;5392;42.688;23.298;2023-04-16T01:21:37;57284.00;;;-144.48;78.25
10688;BME280;5392;42.688;23.298;2023-04-16T01:24:04;57336.19;;;-144.48;79.73
10688;BME280;5392;42.688;23.298;2023-04-16T01:26:31;57313.22;;;-144.48;78.48
10688;BME280;5392;42.688;23.298;2023-04-16T01:28:59;57288.19;;;-144.48;78.36
10688;BME280;5392;42.688;23.298;2023-04-16T01:31:25;57315.31;;;-144.48;77.78
10688;BME280;5392;42.688;23.298;2023-04-16T01:33:52;57309.06;;;-144.48;78.42
10688;BME280;5392;42.688;23.298;2023-04-16T01:36:19;57275.66;;;-144.48;79.04
10688;BME280;5392;42.688;23.298;2023-04-16T01:39:04;57271.50;;;-144.48;79.50
10688;BME280;5392;42.688;23.298;2023-04-16T01:41:31;57269.41;;;-144.48;79.93
10688;BME280;5392;42.688;23.298;2023-04-16T01:43:58;57292.38;;;-144.48;79.31
10688;BME280;5392;42.688;23.298;2023-04-16T01:46:30;57290.28;;;-144.48;77.94
10688;BME280;5392;42.688;23.298;2023-04-16T01:48:57;57279.84;;;-144.48;76.66
10688;BME280;5392;42.688;23.298;2023-04-16T01:51:24;57375.84;;;-144.48;76.61
10688;BME280;5392;42.688;23.298;2023-04-16T01:53:53;57321.59;;;-144.48;75.98
10688;BME280;5392;42.688;23.298;2023-04-16T01:56:20;57284.00;;;-144.48;75.78
10688;BME280;5392;42.688;23.298;2023-04-16T01:58:47;57292.38;;;-144.48;76.65
10688;BME280;5392;42.688;23.298;2023-04-16T02:01:14;57290.28;;;-144.48;76.81
10688;BME280;5392;42.688;23.298;2023-04-16T02:03:40;57292.38;;;-144.48;77.28
10688;BME280;5392;42.688;23.298;2023-04-16T02:06:08;57271.50;;;-144.48;77.93
10688;BME280;5392;42.688;23.298;2023-04-16T02:08:34;57309.06;;;-144.48;78.23
10688;BME280;5392;42.688;23.298;2023-04-16T02:11:01;57273.56;;;-144.48;78.41
10688;BME280;5392;42.688;23.298;2023-04-16T02:13:28;57327.84;;;-144.48;78.72
10688;BME280;5392;42.688;23.298;2023-04-16T02:15:55;57309.06;;;-144.48;78.24
10688;BME280;5392;42.688;23.298;2023-04-16T02:18:21;57329.94;;;-144.48;77.04
10688;BME280;5392;42.688;23.298;2023-04-16T02:20:48;57281.94;;;-144.48;77.12
10688;BME280;5392;42.688;23.298;2023-04-16T02:23:15;57325.75;;;-144.48;77.36
10688;BME280;5392;42.688;23.298;2023-04-16T02:25:43;57323.66;;;-144.48;77.22
10688;BME280;5392;42.688;23.298;2023-04-16T02:28:12;57286.09;;;-144.48;77.50
10688;BME280;5392;42.688;23.298;2023-04-16T02:30:40;57292.38;;;-144.48;78.11
10688;BME280;5392;42.688;23.298;2023-04-16T02:33:09;57263.16;;;-144.48;78.50
10688;BME280;5392;42.688;23.298;2023-04-16T02:35:37;57300.72;;;-144.48;78.21
10688;BME280;5392;42.688;23.298;2023-04-16T02:38:05;57327.84;;;-144.48;78.10
10688;BME280;5392;42.688;23.298;2023-04-16T02:40:31;57294.44;;;-144.48;78.15
10688;BME280;5392;42.688;23.298;2023-04-16T02:42:58;57273.56;;;-144.48;78.86
10688;BME280;5392;42.688;23.298;2023-04-16T02:45:25;57319.50;;;-144.48;79.18
10688;BME280;5392;42.688;23.298;2023-04-16T02:47:52;57277.75;;;-144.48;79.25
10688;BME280;5392;42.688;23.298;2023-04-16T02:50:18;57313.22;;;-144.48;79.66
10688;BME280;5392;42.688;23.298;2023-04-16T02:52:45;57288.19;;;-144.48;81.48
10688;BME280;5392;42.688;23.298;2023-04-16T02:55:12;57288.19;;;-144.48;81.72
10688;BME280;5392;42.688;23.298;2023-04-16T02:57:38;57298.63;;;-144.48;82.92
10688;BME280;5392;42.688;23.298;2023-04-16T03:00:06;57273.56;;;-144.48;83.03
10688;BME280;5392;42.688;23.298;2023-04-16T03:02:34;57306.97;;;-144.48;83.86
10688;BME280;5392;42.688;23.298;2023-04-16T03:05:02;57323.66;;;-144.48;82.02
10688;BME280;5392;42.688;23.298;2023-04-16T03:07:29;57279.84;;;-144.48;80.95
10688;BME280;5392;42.688;23.298;2023-04-16T03:09:56;57279.84;;;-144.48;82.40
10688;BME280;5392;42.688;23.298;2023-04-16T03:12:23;57311.16;;;-144.48;82.68
10688;BME280;5392;42.688;23.298;2023-04-16T03:14:50;57288.19;;;-144.48;83.04
10688;BME280;5392;42.688;23.298;2023-04-16T03:17:18;57304.88;;;-144.48;83.29
10688;BME280;5392;42.688;23.298;2023-04-16T03:19:44;57321.59;;;-144.48;83.58
10688;BME280;5392;42.688;23.298;2023-04-16T03:22:11;57277.75;;;-144.48;81.54
10688;BME280;5392;42.688;23.298;2023-04-16T03:24:38;57279.84;;;-144.48;81.54
10688;BME280;5392;42.688;23.298;2023-04-16T03:27:05;57284.00;;;-144.48;82.39
10688;BME280;5392;42.688;23.298;2023-04-16T03:29:31;57269.41;;;-144.48;83.06
10688;BME280;5392;42.688;23.298;2023-04-16T03:31:58;57340.38;;;-144.48;84.18
10688;BME280;5392;42.688;23.298;2023-04-16T03:34:24;57327.84;;;-144.48;85.40
10688;BME280;5392;42.688;23.298;2023-04-16T03:36:51;57311.16;;;-144.48;86.21
10688;BME280;5392;42.688;23.298;2023-04-16T03:39:18;57275.66;;;-144.48;87.14
10688;BME280;5392;42.688;23.298;2023-04-16T03:41:44;57275.66;;;-144.48;87.24
10688;BME280;5392;42.688;23.298;2023-04-16T03:44:11;57309.06;;;-144.48;87.66
10688;BME280;5392;42.688;23.298;2023-04-16T03:46:38;57267.31;;;-144.48;87.87
10688;BME280;5392;42.688;23.298;2023-04-16T03:49:05;57263.16;;;-144.48;88.11
10688;BME280;5392;42.688;23.298;2023-04-16T03:51:31;57261.06;;;-144.48;86.91
10688;BME280;5392;42.688;23.298;2023-04-16T03:53:58;57250.63;;;-144.48;86.17
10688;BME280;5392;42.688;23.298;2023-04-16T03:56:25;57319.50;;;-144.48;86.04
10688;BME280;5392;42.688;23.298;2023-04-16T03:58:52;57329.94;;;-144.48;86.41
10688;BME280;5392;42.688;23.298;2023-04-16T04:01:18;57313.22;;;-144.48;86.25
10688;BME280;5392;42.688;23.298;2023-04-16T04:03:45;57319.50;;;-144.48;85.34
10688;BME280;5392;42.688;23.298;2023-04-16T04:06:12;57302.81;;;-144.48;83.97
10688;BME280;5392;42.688;23.298;2023-04-16T04:08:38;57265.22;;;-144.48;84.29
10688;BME280;5392;42.688;23.298;2023-04-16T04:11:05;57292.38;;;-144.48;84.54
10688;BME280;5392;42.688;23.298;2023-04-16T04:13:32;57298.63;;;-144.48;84.49
10688;BME280;5392;42.688;23.298;2023-04-16T04:15:59;57317.41;;;-144.48;84.10
10688;BME280;5392;42.688;23.298;2023-04-16T04:18:25;57315.31;;;-144.48;83.91
10688;BME280;5392;42.688;23.298;2023-04-16T04:20:52;57309.06;;;-144.48;83.71
10688;BME280;5392;42.688;23.298;2023-04-16T04:23:19;57302.81;;;-144.48;83.71
10688;BME280;5392;42.688;23.298;2023-04-16T04:25:46;57290.28;;;-144.48;82.74
10688;BME280;5392;42.688;23.298;2023-04-16T04:28:13;57311.16;;;-144.48;82.03
10688;BME280;5392;42.688;23.298;2023-04-16T04:30:39;57292.38;;;-144.48;80.91
10688;BME280;5392;42.688;23.298;2023-04-16T04:33:06;57290.28;;;-144.48;80.24
10688;BME280;5392;42.688;23.298;2023-04-16T04:35:33;57271.50;;;-144.48;79.17
10688;BME280;5392;42.688;23.298;2023-04-16T04:38:00;57325.75;;;-144.48;79.23
10688;BME280;5392;42.688;23.298;2023-04-16T04:40:28;57290.28;;;-144.48;79.34
10688;BME280;5392;42.688;23.298;2023-04-16T04:42:54;57240.19;;;-144.48;79.62
10688;BME280;5392;42.688;23.298;2023-04-16T04:45:21;57315.31;;;-144.48;80.33
10688;BME280;5392;42.688;23.298;2023-04-16T04:47:51;57306.97;;;-144.48;80.07
10688;BME280;5392;42.688;23.298;2023-04-16T04:50:18;57321.59;;;-144.48;79.23
10688;BME280;5392;42.688;23.298;2023-04-16T04:52:45;57292.38;;;-144.48;81.39
10688;BME280;5392;42.688;23.298;2023-04-16T04:55:12;57281.94;;;-144.48;80.01
10688;BME280;5392;42.688;23.298;2023-04-16T04:57:41;57281.94;;;-144.48;79.21
10688;BME280;5392;42.688;23.298;2023-04-16T05:00:08;57302.81;;;-144.48;79.38
10688;BME280;5392;42.688;23.298;2023-04-16T05:02:35;57286.09;;;-144.48;78.74
10688;BME280;5392;42.688;23.298;2023-04-16T05:05:02;57313.22;;;-144.48;78.63
10688;BME280;5392;42.688;23.298;2023-04-16T05:07:29;57273.56;;;-144.48;79.95
10688;BME280;5392;42.688;23.298;2023-04-16T05:09:56;57342.47;;;-144.48;79.79
10688;BME280;5392;42.688;23.298;2023-04-16T05:12:23;57292.38;;;-144.48;79.02
10688;BME280;5392;42.688;23.298;2023-04-16T05:14:50;57327.84;;;-144.48;78.13
10688;BME280;5392;42.688;23.298;2023-04-16T05:17:16;57269.41;;;-144.48;76.52
10688;BME280;5392;42.688;23.298;2023-04-16T05:19:43;57323.66;;;-144.48;76.16
10688;BME280;5392;42.688;23.298;2023-04-16T05:22:10;57321.59;;;-144.48;75.65
10688;BME280;5392;42.688;23.298;2023-04-16T05:24:37;57284.00;;;-144.48;75.12
10688;BME280;5392;42.688;23.298;2023-04-16T05:27:04;57321.59;;;-144.48;75.46
10688;BME280;5392;42.688;23.298;2023-04-16T05:29:31;57348.72;;;-144.48;74.49
10688;BME280;5392;42.688;23.298;2023-04-16T05:31:58;57311.16;;;-144.48;74.25
10688;BME280;5392;42.688;23.298;2023-04-16T05:34:25;57288.19;;;-144.48;72.94
10688;BME280;5392;42.688;23.298;2023-04-16T05:36:51;57300.72;;;-144.48;72.42
10688;BME280;5392;42.688;23.298;2023-04-16T05:39:18;57315.31;;;-144.48;71.76
10688;BME280;5392;42.688;23.298;2023-04-16T05:41:45;57281.94;;;-144.48;71.16
10688;BME280;5392;42.688;23.298;2023-04-16T05:44:12;57325.75;;;-144.48;70.75
10688;BME280;5392;42.688;23.298;2023-04-16T05:46:40;57315.31;;;-144.48;70.80
10688;BME280;5392;42.688;23.298;2023-04-16T05:49:07;57275.66;;;-144.48;70.38
10688;BME280;5392;42.688;23.298;2023-04-16T05:51:34;57281.94;;;-144.48;69.95
10688;BME280;5392;42.688;23.298;2023-04-16T05:54:01;57290.28;;;-144.48;69.52
10688;BME280;5392;42.688;23.298;2023-04-16T05:56:28;57313.22;;;-144.48;70.19
10688;BME280;5392;42.688;23.298;2023-04-16T05:58:54;57277.75;;;-144.48;70.08
10688;BME280;5392;42.688;23.298;2023-04-16T06:01:21;57256.88;;;-144.48;69.87
10688;BME280;5392;42.688;23.298;2023-04-16T06:03:48;57258.97;;;-144.48;69.56
10688;BME280;5392;42.688;23.298;2023-04-16T06:06:15;57286.09;;;-144.48;69.34
10688;BME280;5392;42.688;23.298;2023-04-16T06:08:41;57265.22;;;-144.48;69.34
10688;BME280;5392;42.688;23.298;2023-04-16T06:11:08;57317.41;;;-144.48;68.85
10688;BME280;5392;42.688;23.298;2023-04-16T06:13:35;57267.31;;;-144.48;68.70
10688;BME280;5392;42.688;23.298;2023-04-16T06:16:03;57315.31;;;-144.48;67.92
10688;BME280;5392;42.688;23.298;2023-04-16T06:18:30;57321.59;;;-144.48;66.98
10688;BME280;5392;42.688;23.298;2023-04-16T06:20:56;57269.41;;;-144.48;67.35
10688;BME280;5392;42.688;23.298;2023-04-16T06:23:26;57309.06;;;-144.48;67.00
10688;BME280;5392;42.688;23.298;2023-04-16T06:25:53;57279.84;;;-144.48;66.73
10688;BME280;5392;42.688;23.298;2023-04-16T06:28:20;57263.16;;;-144.48;65.72
10688;BME280;5392;42.688;23.298;2023-04-16T06:30:47;57288.19;;;-144.48;65.53
10688;BME280;5392;42.688;23.298;2023-04-16T06:33:13;57265.22;;;-144.48;65.72
10688;BME280;5392;42.688;23.298;2023-04-16T06:38:25;57288.19;;;-144.48;65.55
10688;BME280;5392;42.688;23.298;2023-04-16T06:40:51;57248.53;;;-144.48;64.88
10688;BME280;5392;42.688;23.298;2023-04-16T06:43:18;57269.41;;;-144.48;64.33
10688;BME280;5392;42.688;23.298;2023-04-16T06:45:45;57294.44;;;-144.48;63.61
10688;BME280;5392;42.688;23.298;2023-04-16T06:48:12;57265.22;;;-144.48;63.63
10688;BME280;5392;42.688;23.298;2023-04-16T06:50:40;57269.41;;;-144.48;63.08
10688;BME280;5392;42.688;23.298;2023-04-16T06:53:07;57248.53;;;-144.48;61.91
10688;BME280;5392;42.688;23.298;2023-04-16T06:55:34;57288.19;;;-144.48;61.01
10688;BME280;5392;42.688;23.298;2023-04-16T06:58:01;57281.94;;;-144.48;60.15
10688;BME280;5392;42.688;23.298;2023-04-16T07:00:27;57277.75;;;-144.48;60.18
10688;BME280;5392;42.688;23.298;2023-04-16T07:02:54;57267.31;;;-144.48;60.89
10688;BME280;5392;42.688;23.298;2023-04-16T07:05:23;57252.72;;;-144.48;60.85
10688;BME280;5392;42.688;23.298;2023-04-16T07:07:50;57279.84;;;-144.48;61.68
10688;BME280;5392;42.688;23.298;2023-04-16T07:10:17;57296.53;;;-144.48;62.00
10688;BME280;5392;42.688;23.298;2023-04-16T07:12:44;57275.66;;;-144.48;62.70
10688;BME280;5392;42.688;23.298;2023-04-16T07:15:10;57298.63;;;-144.48;62.51
10688;BME280;5392;42.688;23.298;2023-04-16T07:17:37;57252.72;;;-144.48;62.33
10688;BME280;5392;42.688;23.298;2023-04-16T07:20:04;57254.78;;;-144.48;62.71
10688;BME280;5392;42.688;23.298;2023-04-16T07:22:31;57273.56;;;-144.48;61.44
10688;BME280;5392;42.688;23.298;2023-04-16T07:24:58;57288.19;;;-144.48;61.14
10688;BME280;5392;42.688;23.298;2023-04-16T07:27:24;57311.16;;;-144.48;61.02
10688;BME280;5392;42.688;23.298;2023-04-16T07:29:51;57204.69;;;-144.48;60.64
10688;BME280;5392;42.688;23.298;2023-04-16T07:32:18;57292.38;;;-144.48;60.89
10688;BME280;5392;42.688;23.298;2023-04-16T07:34:45;57265.22;;;-144.48;61.13
10688;BME280;5392;42.688;23.298;2023-04-16T07:37:12;57244.34;;;-144.48;61.08
10688;BME280;5392;42.688;23.298;2023-04-16T07:39:39;57281.94;;;-144.48;61.07
10688;BME280;5392;42.688;23.298;2023-04-16T07:42:05;57286.09;;;-144.48;61.09
10688;BME280;5392;42.688;23.298;2023-04-16T07:44:32;57275.66;;;-144.48;60.40
10688;BME280;5392;42.688;23.298;2023-04-16T07:46:59;57254.78;;;-144.48;59.88
10688;BME280;5392;42.688;23.298;2023-04-16T07:49:27;57246.44;;;-144.48;59.31
10688;BME280;5392;42.688;23.298;2023-04-16T07:51:53;57236.00;;;-144.48;59.25
10688;BME280;5392;42.688;23.298;2023-04-16T07:54:20;57277.75;;;-144.48;59.08
10688;BME280;5392;42.688;23.298;2023-04-16T07:56:47;57248.53;;;-144.48;59.37
10688;BME280;5392;42.688;23.298;2023-04-16T07:59:14;57254.78;;;-144.48;59.44
10688;BME280;5392;42.688;23.298;2023-04-16T08:01:49;57267.31;;;-144.48;60.57
10688;BME280;5392;42.688;23.298;2023-04-16T08:04:16;57294.44;;;-144.48;59.83
10688;BME280;5392;42.688;23.298;2023-04-16T08:06:52;57273.56;;;-144.48;59.49
10688;BME280;5392;42.688;23.298;2023-04-16T08:09:20;57236.00;;;-144.48;59.12
10688;BME280;5392;42.688;23.298;2023-04-16T08:11:48;57275.66;;;-144.48;57.52
10688;BME280;5392;42.688;23.298;2023-04-16T08:14:15;57296.53;;;-144.48;58.31
10688;BME280;5392;42.688;23.298;2023-04-16T08:16:42;57263.16;;;-144.48;57.31
10688;BME280;5392;42.688;23.298;2023-04-16T08:19:09;57242.28;;;-144.48;56.39
10688;BME280;5392;42.688;23.298;2023-04-16T08:21:36;57258.97;;;-144.48;55.41
10688;BME280;5392;42.688;23.298;2023-04-16T08:24:03;57231.84;;;-144.48;55.33
10688;BME280;5392;42.688;23.298;2023-04-16T08:26:29;57281.94;;;-144.48;55.47
10688;BME280;5392;42.688;23.298;2023-04-16T08:28:56;57236.00;;;-144.48;55.78
10688;BME280;5392;42.688;23.298;2023-04-16T08:31:23;57275.66;;;-144.48;56.64
10688;BME280;5392;42.688;23.298;2023-04-16T08:33:51;57261.06;;;-144.48;58.05
10688;BME280;5392;42.688;23.298;2023-04-16T08:36:18;57258.97;;;-144.48;57.75
10688;BME280;5392;42.688;23.298;2023-04-16T08:38:44;57256.88;;;-144.48;58.91
10688;BME280;5392;42.688;23.298;2023-04-16T08:41:12;57298.63;;;-144.48;58.56
10688;BME280;5392;42.688;23.298;2023-04-16T08:43:43;57244.34;;;-144.48;59.70
10688;BME280;5392;42.688;23.298;2023-04-16T08:46:11;57286.09;;;-144.48;58.93
10688;BME280;5392;42.688;23.298;2023-04-16T08:48:40;57294.44;;;-144.48;58.54
10688;BME280;5392;42.688;23.298;2023-04-16T08:51:09;57250.63;;;-144.48;58.31
10688;BME280;5392;42.688;23.298;2023-04-16T08:53:48;57294.44;;;-144.48;58.15
10688;BME280;5392;42.688;23.298;2023-04-16T08:56:19;57256.88;;;-144.48;57.59
10688;BME280;5392;42.688;23.298;2023-04-16T08:58:47;57306.97;;;-144.48;57.64
10688;BME280;5392;42.688;23.298;2023-04-16T09:01:17;57246.44;;;-144.48;57.92
10688;BME280;5392;42.688;23.298;2023-04-16T09:03:47;57265.22;;;-144.48;59.06
10688;BME280;5392;42.688;23.298;2023-04-16T09:06:16;57246.44;;;-144.48;59.80
10688;BME280;5392;42.688;23.298;2023-04-16T09:08:44;57281.94;;;-144.48;60.74
10688;BME280;5392;42.688;23.298;2023-04-16T09:11:12;57284.00;;;-144.48;61.32
10688;BME280;5392;42.688;23.298;2023-04-16T09:13:39;57317.41;;;-144.48;61.63
10688;BME280;5392;42.688;23.298;2023-04-16T09:16:07;57313.22;;;-144.48;61.83
10688;BME280;5392;42.688;23.298;2023-04-16T09:18:34;57261.06;;;-144.48;60.97
10688;BME280;5392;42.688;23.298;2023-04-16T09:21:01;57286.09;;;-144.48;60.10
10688;BME280;5392;42.688;23.298;2023-04-16T09:23:30;57284.00;;;-144.48;59.87
10688;BME280;5392;42.688;23.298;2023-04-16T09:25:58;57281.94;;;-144.48;59.42
10688;BME280;5392;42.688;23.298;2023-04-16T09:31:14;57296.53;;;-144.48;58.65
10688;BME280;5392;42.688;23.298;2023-04-16T09:33:42;57254.78;;;-144.48;58.89
10688;BME280;5392;42.688;23.298;2023-04-16T09:36:10;57256.88;;;-144.48;58.54
10688;BME280;5392;42.688;23.298;2023-04-16T09:38:50;57215.13;;;-144.48;58.38
10688;BME280;5392;42.688;23.298;2023-04-16T09:41:18;57294.44;;;-144.48;57.95
10688;BME280;5392;42.688;23.298;2023-04-16T09:43:52;57263.16;;;-144.48;57.40
10688;BME280;5392;42.688;23.298;2023-04-16T09:46:20;57265.22;;;-144.48;58.78
10688;BME280;5392;42.688;23.298;2023-04-16T09:48:47;57265.22;;;-144.48;59.50
10688;BME280;5392;42.688;23.298;2023-04-16T09:51:14;57267.31;;;-144.48;59.01
10688;BME280;5392;42.688;23.298;2023-04-16T09:53:41;57313.22;;;-144.48;58.36
10688;BME280;5392;42.688;23.298;2023-04-16T09:56:08;57273.56;;;-144.48;58.43
10688;BME280;5392;42.688;23.298;2023-04-16T09:58:35;57271.50;;;-144.48;58.81
10688;BME280;5392;42.688;23.298;2023-04-16T10:01:12;57265.22;;;-144.48;58.68
10688;BME280;5392;42.688;23.298;2023-04-16T10:03:39;57271.50;;;-144.48;58.58
10688;BME280;5392;42.688;23.298;2023-04-16T10:08:47;57275.66;;;-144.48;58.70
10688;BME280;5392;42.688;23.298;2023-04-16T10:11:16;57242.28;;;-144.48;58.08
10688;BME280;5392;42.688;23.298;2023-04-16T10:13:43;57267.31;;;-144.48;57.77
10688;BME280;5392;42.688;23.298;2023-04-16T10:16:10;57244.34;;;-144.48;57.65
10688;BME280;5392;42.688;23.298;2023-04-16T10:18:42;57292.38;;;-144.48;57.69
10688;BME280;5392;42.688;23.298;2023-04-16T10:21:09;57281.94;;;-144.48;57.33
10688;BME280;5392;42.688;23.298;2023-04-16T10:23:39;57288.19;;;-144.48;57.42
10688;BME280;5392;42.688;23.298;2023-04-16T10:26:05;57271.50;;;-144.48;57.24
10688;BME280;5392;42.688;23.298;2023-04-16T10:28:32;57242.28;;;-144.48;57.03
10688;BME280;5392;42.688;23.298;2023-04-16T10:31:02;57250.63;;;-144.48;56.73
10688;BME280;5392;42.688;23.298;2023-04-16T10:33:38;57275.66;;;-144.48;57.51
10688;BME280;5392;42.688;23.298;2023-04-16T10:36:21;57338.28;;;-144.48;57.10
10688;BME280;5392;42.688;23.298;2023-04-16T10:38:49;57267.31;;;-144.48;56.73
10688;BME280;5392;42.688;23.298;2023-04-16T10:41:18;57263.16;;;-144.48;56.96
10688;BME280;5392;42.688;23.298;2023-04-16T10:43:47;57279.84;;;-144.48;56.59
10688;BME280;5392;42.688;23.298;2023-04-16T10:46:34;57258.97;;;-144.48;56.20
10688;BME280;5392;42.688;23.298;2023-04-16T10:49:17;57250.63;;;-144.48;55.55
10688;BME280;5392;42.688;23.298;2023-04-16T10:51:56;57263.16;;;-144.48;55.97
10688;BME280;5392;42.688;23.298;2023-04-16T10:56:59;57306.97;;;-144.48;57.48
10688;BME280;5392;42.688;23.298;2023-04-16T10:59:31;57284.00;;;-144.48;57.41
10688;BME280;5392;42.688;23.298;2023-04-16T11:02:05;57271.50;;;-144.48;57.42
10688;BME280;5392;42.688;23.298;2023-04-16T11:04:35;57288.19;;;-144.48;57.14
10688;BME280;5392;42.688;23.298;2023-04-16T11:09:56;57265.22;;;-144.48;57.52
10688;BME280;5392;42.688;23.298;2023-04-16T11:15:21;57256.88;;;-144.48;57.49
10688;BME280;5392;42.688;23.298;2023-04-16T11:17:49;57279.84;;;-144.48;57.27
10688;BME280;5392;42.688;23.298;2023-04-16T11:20:21;57277.75;;;-144.48;57.19
10688;BME280;5392;42.688;23.298;2023-04-16T11:22:49;57284.00;;;-144.48;56.81
10688;BME280;5392;42.688;23.298;2023-04-16T11:27:47;57302.81;;;-144.48;57.62
10688;BME280;5392;42.688;23.298;2023-04-16T11:30:15;57236.00;;;-144.48;57.01
10688;BME280;5392;42.688;23.298;2023-04-16T11:32:42;57244.34;;;-144.48;56.67
10688;BME280;5392;42.688;23.298;2023-04-16T11:35:14;57288.19;;;-144.48;56.19
10688;BME280;5392;42.688;23.298;2023-04-16T11:37:42;57277.75;;;-144.48;56.89
10688;BME280;5392;42.688;23.298;2023-04-16T11:40:09;57233.91;;;-144.48;56.90
10688;BME280;5392;42.688;23.298;2023-04-16T11:42:37;57286.09;;;-144.48;56.63
10688;BME280;5392;42.688;23.298;2023-04-16T11:45:09;57284.00;;;-144.48;56.38
10688;BME280;5392;42.688;23.298;2023-04-16T11:47:50;57296.53;;;-144.48;56.84
10688;BME280;5392;42.688;23.298;2023-04-16T11:52:48;57258.97;;;-144.48;57.40
10688;BME280;5392;42.688;23.298;2023-04-16T11:55:15;57267.31;;;-144.48;58.04
10688;BME280;5392;42.688;23.298;2023-04-16T11:57:42;57294.44;;;-144.48;58.12
10688;BME280;5392;42.688;23.298;2023-04-16T12:00:09;57277.75;;;-144.48;57.55
10688;BME280;5392;42.688;23.298;2023-04-16T12:02:44;57252.72;;;-144.48;57.31
10688;BME280;5392;42.688;23.298;2023-04-16T12:05:33;57225.56;;;-144.48;57.02
10688;BME280;5392;42.688;23.298;2023-04-16T12:08:02;57302.81;;;-144.48;56.60
10688;BME280;5392;42.688;23.298;2023-04-16T12:10:31;57273.56;;;-144.48;56.08
10688;BME280;5392;42.688;23.298;2023-04-16T12:13:10;57263.16;;;-144.48;57.01
10688;BME280;5392;42.688;23.298;2023-04-16T12:15:48;57275.66;;;-144.48;57.57
10688;BME280;5392;42.688;23.298;2023-04-16T12:18:17;57254.78;;;-144.48;57.64
10688;BME280;5392;42.688;23.298;2023-04-16T12:20:45;57284.00;;;-144.48;57.26
10688;BME280;5392;42.688;23.298;2023-04-16T12:23:29;57290.28;;;-144.48;56.75
10688;BME280;5392;42.688;23.298;2023-04-16T12:25:56;57286.09;;;-144.48;56.53
10688;BME280;5392;42.688;23.298;2023-04-16T12:28:33;57263.16;;;-144.48;55.97
10688;BME280;5392;42.688;23.298;2023-04-16T12:31:01;57238.09;;;-144.48;55.62
10688;BME280;5392;42.688;23.298;2023-04-16T12:33:28;57250.63;;;-144.48;55.90
10688;BME280;5392;42.688;23.298;2023-04-16T12:35:55;57294.44;;;-144.48;55.68
10688;BME280;5392;42.688;23.298;2023-04-16T12:38:21;57275.66;;;-144.48;55.45
10688;BME280;5392;42.688;23.298;2023-04-16T12:40:50;57271.50;;;-144.48;55.87
10688;BME280;5392;42.688;23.298;2023-04-16T12:43:17;57281.94;;;-144.48;55.78
10688;BME280;5392;42.688;23.298;2023-04-16T12:45:45;57265.22;;;-144.48;55.71
10688;BME280;5392;42.688;23.298;2023-04-16T12:48:12;57263.16;;;-144.48;55.98
10688;BME280;5392;42.688;23.298;2023-04-16T12:50:38;57267.31;;;-144.48;55.72
10688;BME280;5392;42.688;23.298;2023-04-16T12:53:05;57275.66;;;-144.48;56.18
10688;BME280;5392;42.688;23.298;2023-04-16T12:55:32;57298.63;;;-144.48;56.61
10688;BME280;5392;42.688;23.298;2023-04-16T12:57:59;57242.28;;;-144.48;57.09
10688;BME280;5392;42.688;23.298;2023-04-16T13:00:25;57281.94;;;-144.48;58.15
10688;BME280;5392;42.688;23.298;2023-04-16T13:02:52;57286.09;;;-144.48;58.15
10688;BME280;5392;42.688;23.298;2023-04-16T13:05:19;57296.53;;;-144.48;58.41